Zeran (malta) — 9HHJ5 — position and weather

sailwx.info

Track history (hours):
 
Tides and Currents Weather Stations Pressure Air Temp Water Temp Dewpoint Dewpoint Depression Visibility Wind Speed Wind Dir Waves Ship Positions

Zeran (malta)

Last reported at 2016-Feb-06 20:33 UTC. Time now 2016-Feb-07 08:37 UTC.
Position N 42°52' E 009°50'.

Length 148 m; beam 24 m.

Type: Ship (hazmat cat A). MMSI: 249846000.

Date/timePositionNaut miles runAvg speedWind from/ knotsBaromVisibWave heightAir tempDewpointWater temp
2016-Feb-06 20:33N 42°52' E 009°50'3511.6
2016-Feb-06 17:33N 43°22' E 009°28'1212.0
2016-Feb-06 16:33N 43°33' E 009°20'1212.4
2016-Feb-06 15:33N 43°44' E 009°13'1212.3
2016-Feb-06 14:33N 43°56' E 009°07'1212.0
2016-Feb-06 13:33N 44°07' E 009°01'1312.6
2016-Feb-06 12:33N 44°19' E 008°55'6 5.5
2016-Feb-06 11:31N 44°24' E 008°53'0 0.0
2016-Feb-06 10:28N 44°24' E 008°53'0 0.0
2016-Feb-06 09:31N 44°24' E 008°53'0 0.0
2016-Feb-06 08:31N 44°24' E 008°53'0 0.0
2016-Feb-06 07:31N 44°24' E 008°53'0 0.0
2016-Feb-06 06:31N 44°24' E 008°53'0 0.0
2016-Feb-06 05:28N 44°24' E 008°53'0 0.0
2016-Feb-06 04:28N 44°24' E 008°53'0 0.0
2016-Feb-06 03:28N 44°24' E 008°53'0 0.0
2016-Feb-06 02:28N 44°24' E 008°53'0 0.0
2016-Feb-06 01:31N 44°24' E 008°53'0 0.0
2016-Feb-06 00:31N 44°24' E 008°53'0 0.0
2016-Feb-05 23:31N 44°24' E 008°53'0 0.0
2016-Feb-05 22:28N 44°24' E 008°53'0 0.0
2016-Feb-05 21:31N 44°24' E 008°53'0 0.0
2016-Feb-05 20:28N 44°24' E 008°53'0 0.0
2016-Feb-05 19:10N 44°24' E 008°53'0 0.0
2016-Feb-05 18:31N 44°24' E 008°53'0 0.0
2016-Feb-05 17:31N 44°24' E 008°53'0 0.0
2016-Feb-05 16:28N 44°24' E 008°53'0 0.0
2016-Feb-05 15:28N 44°24' E 008°53'0 0.0
2016-Feb-05 14:31N 44°24' E 008°53'0 0.0
2016-Feb-05 13:31N 44°24' E 008°53'4 3.8
2016-Feb-05 12:33N 44°23' E 008°57'1211.7
2016-Feb-05 11:34N 44°12' E 009°03'  
2016-Jan-31 14:32N 43°22' E 009°28'9 9.0
2016-Jan-31 13:33N 43°30' E 009°24'9 9.4
2016-Jan-31 12:33N 43°39' E 009°19'1010.0
2016-Jan-31 11:33N 43°49' E 009°15'10 9.9
2016-Jan-31 10:33N 43°58' E 009°10'1010.1
2016-Jan-31 09:33N 44°07' E 009°04'10 9.8
2016-Jan-31 08:33N 44°16' E 008°59'8 8.4
2016-Jan-31 07:33N 44°24' E 008°54'1 1.1
2016-Jan-31 06:31N 44°24' E 008°53'0 0.0
2016-Jan-31 05:31N 44°24' E 008°53'0 0.0
2016-Jan-31 04:28N 44°24' E 008°53'0 0.0
2016-Jan-31 03:31N 44°24' E 008°53'0 0.0
2016-Jan-31 02:31N 44°24' E 008°53'0 0.0
2016-Jan-31 01:28N 44°24' E 008°53'0 0.0
2016-Jan-31 00:31N 44°24' E 008°53'0 0.0
2016-Jan-30 23:31N 44°24' E 008°53'0 0.0
2016-Jan-30 22:31N 44°24' E 008°53'0 0.0
2016-Jan-30 21:31N 44°24' E 008°53'0 0.0
2016-Jan-30 20:31N 44°24' E 008°53'0 0.0
2016-Jan-30 19:31N 44°24' E 008°53'0 0.0
2016-Jan-30 18:28N 44°24' E 008°53'0 0.0
2016-Jan-30 17:31N 44°24' E 008°53'0 0.0
2016-Jan-30 16:28N 44°24' E 008°53'0 0.0
2016-Jan-30 15:31N 44°24' E 008°53'0 0.0
2016-Jan-30 14:28N 44°24' E 008°53'0 0.0
2016-Jan-30 13:28N 44°24' E 008°53'0 0.0
2016-Jan-30 12:31N 44°24' E 008°53'0 0.0
2016-Jan-30 11:31N 44°24' E 008°53'0 0.0
2016-Jan-30 10:31N 44°24' E 008°53'0 0.0
2016-Jan-30 09:31N 44°24' E 008°53'0 0.0
2016-Jan-30 08:31N 44°24' E 008°53'0 0.0
2016-Jan-30 07:31N 44°24' E 008°53'0 0.0
2016-Jan-30 06:31N 44°24' E 008°53'0 0.3
2016-Jan-30 05:33N 44°24' E 008°53'9 9.1
2016-Jan-30 04:33N 44°17' E 009°01'1414.0
2016-Jan-30 03:33N 44°04' E 009°08'1413.7
2016-Jan-30 02:33N 43°51' E 009°15'1413.6
2016-Jan-30 01:33N 43°38' E 009°21'1313.1
2016-Jan-30 00:33N 43°26' E 009°28'1313.3
2016-Jan-29 23:33N 43°14' E 009°34'322 7.6
2016-Jan-28 05:11N 38°10' E 011°55'  
Track history (hours):
 
Tides and Currents Weather Stations Pressure Air Temp Water Temp Dewpoint Dewpoint Depression Visibility Wind Speed Wind Dir Waves Ship Positions

Zeran (malta)

Last reported at 2016-Feb-06 20:33 UTC. Time now 2016-Feb-07 08:37 UTC.
Position N 42°52' E 009°50'.

Length 148 m; beam 24 m.

Type: Ship (hazmat cat A). MMSI: 249846000.

Date/timePositionNaut miles runAvg speedWind from/ knotsBaromVisibWave heightAir tempDewpointWater temp
2016-Feb-06 20:33N 42°52' E 009°50'3511.6
2016-Feb-06 17:33N 43°22' E 009°28'1212.0
2016-Feb-06 16:33N 43°33' E 009°20'1212.4
2016-Feb-06 15:33N 43°44' E 009°13'1212.3
2016-Feb-06 14:33N 43°56' E 009°07'1212.0
2016-Feb-06 13:33N 44°07' E 009°01'1312.6
2016-Feb-06 12:33N 44°19' E 008°55'6 5.5
2016-Feb-06 11:31N 44°24' E 008°53'0 0.0
2016-Feb-06 10:28N 44°24' E 008°53'0 0.0
2016-Feb-06 09:31N 44°24' E 008°53'0 0.0
2016-Feb-06 08:31N 44°24' E 008°53'0 0.0
2016-Feb-06 07:31N 44°24' E 008°53'0 0.0
2016-Feb-06 06:31N 44°24' E 008°53'0 0.0
2016-Feb-06 05:28N 44°24' E 008°53'0 0.0
2016-Feb-06 04:28N 44°24' E 008°53'0 0.0
2016-Feb-06 03:28N 44°24' E 008°53'0 0.0
2016-Feb-06 02:28N 44°24' E 008°53'0 0.0
2016-Feb-06 01:31N 44°24' E 008°53'0 0.0
2016-Feb-06 00:31N 44°24' E 008°53'0 0.0
2016-Feb-05 23:31N 44°24' E 008°53'0 0.0
2016-Feb-05 22:28N 44°24' E 008°53'0 0.0
2016-Feb-05 21:31N 44°24' E 008°53'0 0.0
2016-Feb-05 20:28N 44°24' E 008°53'0 0.0
2016-Feb-05 19:10N 44°24' E 008°53'0 0.0
2016-Feb-05 18:31N 44°24' E 008°53'0 0.0
2016-Feb-05 17:31N 44°24' E 008°53'0 0.0
2016-Feb-05 16:28N 44°24' E 008°53'0 0.0
2016-Feb-05 15:28N 44°24' E 008°53'0 0.0
2016-Feb-05 14:31N 44°24' E 008°53'0 0.0
2016-Feb-05 13:31N 44°24' E 008°53'4 3.8
2016-Feb-05 12:33N 44°23' E 008°57'1211.7
2016-Feb-05 11:34N 44°12' E 009°03'  
2016-Jan-31 14:32N 43°22' E 009°28'9 9.0
2016-Jan-31 13:33N 43°30' E 009°24'9 9.4
2016-Jan-31 12:33N 43°39' E 009°19'1010.0
2016-Jan-31 11:33N 43°49' E 009°15'10 9.9
2016-Jan-31 10:33N 43°58' E 009°10'1010.1
2016-Jan-31 09:33N 44°07' E 009°04'10 9.8
2016-Jan-31 08:33N 44°16' E 008°59'8 8.4
2016-Jan-31 07:33N 44°24' E 008°54'1 1.1
2016-Jan-31 06:31N 44°24' E 008°53'0 0.0
2016-Jan-31 05:31N 44°24' E 008°53'0 0.0
2016-Jan-31 04:28N 44°24' E 008°53'0 0.0
2016-Jan-31 03:31N 44°24' E 008°53'0 0.0
2016-Jan-31 02:31N 44°24' E 008°53'0 0.0
2016-Jan-31 01:28N 44°24' E 008°53'0 0.0
2016-Jan-31 00:31N 44°24' E 008°53'0 0.0
2016-Jan-30 23:31N 44°24' E 008°53'0 0.0
2016-Jan-30 22:31N 44°24' E 008°53'0 0.0
2016-Jan-30 21:31N 44°24' E 008°53'0 0.0
2016-Jan-30 20:31N 44°24' E 008°53'0 0.0
2016-Jan-30 19:31N 44°24' E 008°53'0 0.0
2016-Jan-30 18:28N 44°24' E 008°53'0 0.0
2016-Jan-30 17:31N 44°24' E 008°53'0 0.0
2016-Jan-30 16:28N 44°24' E 008°53'0 0.0
2016-Jan-30 15:31N 44°24' E 008°53'0 0.0
2016-Jan-30 14:28N 44°24' E 008°53'0 0.0
2016-Jan-30 13:28N 44°24' E 008°53'0 0.0
2016-Jan-30 12:31N 44°24' E 008°53'0 0.0
2016-Jan-30 11:31N 44°24' E 008°53'0 0.0
2016-Jan-30 10:31N 44°24' E 008°53'0 0.0
2016-Jan-30 09:31N 44°24' E 008°53'0 0.0
2016-Jan-30 08:31N 44°24' E 008°53'0 0.0
2016-Jan-30 07:31N 44°24' E 008°53'0 0.0
2016-Jan-30 06:31N 44°24' E 008°53'0 0.3
2016-Jan-30 05:33N 44°24' E 008°53'9 9.1
2016-Jan-30 04:33N 44°17' E 009°01'1414.0
2016-Jan-30 03:33N 44°04' E 009°08'1413.7
2016-Jan-30 02:33N 43°51' E 009°15'1413.6
2016-Jan-30 01:33N 43°38' E 009°21'1313.1
2016-Jan-30 00:33N 43°26' E 009°28'1313.3
2016-Jan-29 23:33N 43°14' E 009°34'322 7.6
2016-Jan-28 05:11N 38°10' E 011°55'  

Dump ship's entire track history